sensor_id;sensor_type;location;lat;lon;timestamp;pressure;altitude;pressure_sealevel;temperature;humidity
52745;BME280;38637;49.984;20.426;2023-02-16T00:00:40;100299.78;;;0.22;83.06
52745;BME280;38637;49.984;20.426;2023-02-16T00:03:11;100279.81;;;0.17;83.32
52745;BME280;38637;49.984;20.426;2023-02-16T00:05:37;100291.72;;;0.22;83.38
52745;BME280;38637;49.984;20.426;2023-02-16T00:08:03;100295.09;;;0.25;83.66
52745;BME280;38637;49.984;20.426;2023-02-16T00:10:34;100300.47;;;0.25;83.39
52745;BME280;38637;49.984;20.426;2023-02-16T00:13:00;100301.78;;;0.20;83.22
52745;BME280;38637;49.984;20.426;2023-02-16T00:15:45;100290.56;;;0.17;82.87
52745;BME280;38637;49.984;20.426;2023-02-16T00:18:16;100291.59;;;0.16;83.16
52745;BME280;38637;49.984;20.426;2023-02-16T00:20:42;100285.72;;;0.12;83.04
52745;BME280;38637;49.984;20.426;2023-02-16T00:23:08;100277.34;;;0.07;82.61
52745;BME280;38637;49.984;20.426;2023-02-16T00:25:33;100289.09;;;0.06;82.85
52745;BME280;38637;49.984;20.426;2023-02-16T00:28:02;100283.53;;;0.08;82.82
52745;BME280;38637;49.984;20.426;2023-02-16T00:30:28;100282.69;;;0.07;82.66
52745;BME280;38637;49.984;20.426;2023-02-16T00:32:53;100277.69;;;0.04;82.42
52745;BME280;38637;49.984;20.426;2023-02-16T00:35:20;100284.91;;;0.04;82.98
52745;BME280;38637;49.984;20.426;2023-02-16T00:37:46;100284.22;;;0.02;83.16
52745;BME280;38637;49.984;20.426;2023-02-16T00:40:14;100280.50;;;0.03;83.03
52745;BME280;38637;49.984;20.426;2023-02-16T00:42:40;100262.41;;;-0.04;83.01
52745;BME280;38637;49.984;20.426;2023-02-16T00:45:14;100251.84;;;0.03;83.10
52745;BME280;38637;49.984;20.426;2023-02-16T00:47:42;100257.88;;;0.05;83.32
52745;BME280;38637;49.984;20.426;2023-02-16T00:50:26;100260.38;;;0.07;82.72
52745;BME280;38637;49.984;20.426;2023-02-16T00:52:52;100250.34;;;0.01;82.48
52745;BME280;38637;49.984;20.426;2023-02-16T00:55:22;100243.28;;;-0.01;82.49
52745;BME280;38637;49.984;20.426;2023-02-16T00:58:07;100237.59;;;-0.06;82.38
52745;BME280;38637;49.984;20.426;2023-02-16T01:00:40;100237.06;;;-0.09;82.32
52745;BME280;38637;49.984;20.426;2023-02-16T01:03:10;100238.94;;;-0.10;82.37
52745;BME280;38637;49.984;20.426;2023-02-16T01:05:36;100237.25;;;-0.11;82.70
52745;BME280;38637;49.984;20.426;2023-02-16T01:08:01;100231.75;;;-0.17;82.41
52745;BME280;38637;49.984;20.426;2023-02-16T01:10:50;100241.81;;;-0.19;82.57
52745;BME280;38637;49.984;20.426;2023-02-16T01:13:46;100227.72;;;-0.21;82.31
52745;BME280;38637;49.984;20.426;2023-02-16T01:16:19;100232.44;;;-0.24;82.73
52745;BME280;38637;49.984;20.426;2023-02-16T01:18:45;100234.28;;;-0.24;83.45
52745;BME280;38637;49.984;20.426;2023-02-16T01:21:10;100235.94;;;-0.23;83.46
52745;BME280;38637;49.984;20.426;2023-02-16T01:23:37;100219.84;;;-0.23;83.17
52745;BME280;38637;49.984;20.426;2023-02-16T01:26:03;100222.34;;;-0.21;83.71
52745;BME280;38637;49.984;20.426;2023-02-16T01:28:29;100218.81;;;-0.22;nan
52745;BME280;38637;49.984;20.426;2023-02-16T01:30:54;100220.19;;;-0.26;83.27
52745;BME280;38637;49.984;20.426;2023-02-16T01:33:20;100205.25;;;-0.29;83.14
52745;BME280;38637;49.984;20.426;2023-02-16T01:35:46;100206.63;;;-0.33;82.63
52745;BME280;38637;49.984;20.426;2023-02-16T01:38:24;100208.13;;;-0.38;82.59
52745;BME280;38637;49.984;20.426;2023-02-16T01:43:49;100188.84;;;-0.42;81.84
52745;BME280;38637;49.984;20.426;2023-02-16T01:46:20;100196.06;;;-0.42;82.17
52745;BME280;38637;49.984;20.426;2023-02-16T01:48:48;100197.41;;;-0.47;82.57
52745;BME280;38637;49.984;20.426;2023-02-16T01:51:20;100185.16;;;-0.49;82.42
52745;BME280;38637;49.984;20.426;2023-02-16T01:53:55;100176.94;;;-0.56;82.57
52745;BME280;38637;49.984;20.426;2023-02-16T01:56:47;100177.28;;;-0.51;82.47
52745;BME280;38637;49.984;20.426;2023-02-16T01:59:19;100184.66;;;-0.53;83.03
52745;BME280;38637;49.984;20.426;2023-02-16T02:01:59;100185.00;;;-0.56;82.87
52745;BME280;38637;49.984;20.426;2023-02-16T02:04:34;100185.34;;;-0.59;82.28
52745;BME280;38637;49.984;20.426;2023-02-16T02:07:30;100183.69;;;-0.60;82.68
52745;BME280;38637;49.984;20.426;2023-02-16T02:13:02;100174.13;;;-0.62;82.46
52745;BME280;38637;49.984;20.426;2023-02-16T02:15:31;100166.06;;;-0.71;82.31
52745;BME280;38637;49.984;20.426;2023-02-16T02:17:57;100171.94;;;-0.75;82.55
52745;BME280;38637;49.984;20.426;2023-02-16T02:34:32;100164.09;;;-0.85;82.35
52745;BME280;38637;49.984;20.426;2023-02-16T02:40:09;100166.25;;;-0.97;81.62
52745;BME280;38637;49.984;20.426;2023-02-16T02:45:24;100172.78;;;-0.99;81.60
52745;BME280;38637;49.984;20.426;2023-02-16T02:47:52;100169.28;;;-1.00;81.74
52745;BME280;38637;49.984;20.426;2023-02-16T02:50:37;100164.75;;;-0.99;81.65
52745;BME280;38637;49.984;20.426;2023-02-16T02:53:09;100172.63;;;-0.98;82.12
52745;BME280;38637;49.984;20.426;2023-02-16T02:55:39;100174.97;;;-0.95;81.75
52745;BME280;38637;49.984;20.426;2023-02-16T02:58:26;100179.66;;;-0.97;81.45
52745;BME280;38637;49.984;20.426;2023-02-16T03:01:12;100166.94;;;-1.03;81.73
52745;BME280;38637;49.984;20.426;2023-02-16T03:03:50;100175.31;;;-1.06;81.96
52745;BME280;38637;49.984;20.426;2023-02-16T03:06:21;100173.97;;;-1.10;81.00
52745;BME280;38637;49.984;20.426;2023-02-16T03:08:54;100178.47;;;-1.10;81.13
52745;BME280;38637;49.984;20.426;2023-02-16T03:11:26;100174.31;;;-1.13;81.11
52745;BME280;38637;49.984;20.426;2023-02-16T03:14:28;100179.81;;;-1.14;81.33
52745;BME280;38637;49.984;20.426;2023-02-16T03:17:00;100177.47;;;-1.09;81.57
52745;BME280;38637;49.984;20.426;2023-02-16T03:19:46;100180.16;;;-1.09;82.19
52745;BME280;38637;49.984;20.426;2023-02-16T03:22:32;100186.19;;;-1.07;81.63
52745;BME280;38637;49.984;20.426;2023-02-16T03:25:17;100180.81;;;-1.07;81.28
52745;BME280;38637;49.984;20.426;2023-02-16T03:28:03;100184.16;;;-1.13;81.33
52745;BME280;38637;49.984;20.426;2023-02-16T03:30:49;100182.00;;;-1.18;80.92
52745;BME280;38637;49.984;20.426;2023-02-16T03:33:16;100192.72;;;-1.18;81.09
52745;BME280;38637;49.984;20.426;2023-02-16T03:35:42;100193.38;;;-1.24;80.43
52745;BME280;38637;49.984;20.426;2023-02-16T03:38:09;100178.63;;;-1.36;80.61
52745;BME280;38637;49.984;20.426;2023-02-16T03:40:35;100184.44;;;-1.41;80.37
52745;BME280;38637;49.984;20.426;2023-02-16T03:43:06;100198.88;;;-1.34;80.32
52745;BME280;38637;49.984;20.426;2023-02-16T03:45:33;100194.03;;;-1.30;80.75
52745;BME280;38637;49.984;20.426;2023-02-16T03:47:59;100207.78;;;-1.25;80.88
52745;BME280;38637;49.984;20.426;2023-02-16T03:50:25;100203.25;;;-1.25;80.81
52745;BME280;38637;49.984;20.426;2023-02-16T03:52:52;100196.38;;;-1.27;81.30
52745;BME280;38637;49.984;20.426;2023-02-16T03:55:17;100189.34;;;-1.28;81.28
52745;BME280;38637;49.984;20.426;2023-02-16T03:57:43;100191.34;;;-1.30;80.68
52745;BME280;38637;49.984;20.426;2023-02-16T04:00:08;100189.69;;;-1.31;80.31
52745;BME280;38637;49.984;20.426;2023-02-16T04:02:34;100188.50;;;-1.37;80.56
52745;BME280;38637;49.984;20.426;2023-02-16T04:04:59;100186.28;;;-1.42;81.34
52745;BME280;38637;49.984;20.426;2023-02-16T04:07:24;100184.78;;;-1.44;81.76
52745;BME280;38637;49.984;20.426;2023-02-16T04:09:50;100182.09;;;-1.44;81.09
52745;BME280;38637;49.984;20.426;2023-02-16T04:12:15;100173.91;;;-1.43;81.35
52745;BME280;38637;49.984;20.426;2023-02-16T04:14:59;100182.09;;;-1.44;80.63
52745;BME280;38637;49.984;20.426;2023-02-16T04:17:24;100171.56;;;-1.46;81.44
52745;BME280;38637;49.984;20.426;2023-02-16T04:19:50;100168.06;;;-1.46;80.77
52745;BME280;38637;49.984;20.426;2023-02-16T04:22:15;100163.34;;;-1.44;80.78
52745;BME280;38637;49.984;20.426;2023-02-16T04:24:40;100153.84;;;-1.47;81.29
52745;BME280;38637;49.984;20.426;2023-02-16T04:27:06;100162.53;;;-1.36;81.14
52745;BME280;38637;49.984;20.426;2023-02-16T04:29:31;100171.91;;;-1.32;81.39
52745;BME280;38637;49.984;20.426;2023-02-16T04:31:56;100177.13;;;-1.31;81.33
52745;BME280;38637;49.984;20.426;2023-02-16T04:34:22;100170.06;;;-1.32;81.46
52745;BME280;38637;49.984;20.426;2023-02-16T04:36:47;100168.91;;;-1.29;81.31
52745;BME280;38637;49.984;20.426;2023-02-16T04:39:12;100171.75;;;-1.23;81.91
52745;BME280;38637;49.984;20.426;2023-02-16T04:41:38;100166.06;;;-1.20;82.17
52745;BME280;38637;49.984;20.426;2023-02-16T04:44:03;100174.97;;;-1.11;82.09
52745;BME280;38637;49.984;20.426;2023-02-16T04:46:28;100164.09;;;-1.09;82.45
52745;BME280;38637;49.984;20.426;2023-02-16T04:48:54;100157.72;;;-1.08;82.56
52745;BME280;38637;49.984;20.426;2023-02-16T04:51:20;100169.94;;;-1.06;82.95
52745;BME280;38637;49.984;20.426;2023-02-16T04:53:45;100158.72;;;-1.01;82.81
52745;BME280;38637;49.984;20.426;2023-02-16T04:56:11;100158.38;;;-0.98;83.06
52745;BME280;38637;49.984;20.426;2023-02-16T04:58:36;100155.34;;;-0.95;82.60
52745;BME280;38637;49.984;20.426;2023-02-16T05:01:02;100155.22;;;-0.94;82.96
52745;BME280;38637;49.984;20.426;2023-02-16T05:03:28;100154.19;;;-0.93;83.24
52745;BME280;38637;49.984;20.426;2023-02-16T05:05:53;100150.50;;;-1.08;82.89
52745;BME280;38637;49.984;20.426;2023-02-16T05:08:18;100156.53;;;-1.06;82.69
52745;BME280;38637;49.984;20.426;2023-02-16T05:10:44;100149.84;;;-1.10;82.76
52745;BME280;38637;49.984;20.426;2023-02-16T05:13:10;100148.84;;;-1.09;83.28
52745;BME280;38637;49.984;20.426;2023-02-16T05:15:55;100146.84;;;-1.07;nan
52745;BME280;38637;49.984;20.426;2023-02-16T05:18:20;100146.66;;;-1.05;83.52
52745;BME280;38637;49.984;20.426;2023-02-16T05:20:46;100153.53;;;-1.03;83.29
52745;BME280;38637;49.984;20.426;2023-02-16T05:23:29;100149.53;;;-1.07;83.81
52745;BME280;38637;49.984;20.426;2023-02-16T05:25:55;100157.56;;;-1.07;83.54
52745;BME280;38637;49.984;20.426;2023-02-16T05:28:20;100159.22;;;-1.06;83.20
52745;BME280;38637;49.984;20.426;2023-02-16T05:30:45;100156.53;;;-1.06;83.38
52745;BME280;38637;49.984;20.426;2023-02-16T05:33:11;100149.19;;;-1.04;83.51
52745;BME280;38637;49.984;20.426;2023-02-16T05:35:36;100151.53;;;-1.01;83.94
52745;BME280;38637;49.984;20.426;2023-02-16T05:38:01;100150.50;;;-1.00;84.06
52745;BME280;38637;49.984;20.426;2023-02-16T05:40:27;100160.72;;;-0.95;84.22
52745;BME280;38637;49.984;20.426;2023-02-16T05:42:53;100154.88;;;-0.90;83.96
52745;BME280;38637;49.984;20.426;2023-02-16T05:45:18;100160.22;;;-0.90;83.74
52745;BME280;38637;49.984;20.426;2023-02-16T05:47:43;100159.22;;;-0.89;83.73
52745;BME280;38637;49.984;20.426;2023-02-16T05:50:09;100161.91;;;-0.89;84.28
52745;BME280;38637;49.984;20.426;2023-02-16T05:52:34;100163.94;;;-0.91;83.71
52745;BME280;38637;49.984;20.426;2023-02-16T05:55:00;100156.03;;;-0.93;83.91
52745;BME280;38637;49.984;20.426;2023-02-16T05:57:25;100153.84;;;-0.89;83.93
52745;BME280;38637;49.984;20.426;2023-02-16T05:59:50;100155.22;;;-0.85;83.94
52745;BME280;38637;49.984;20.426;2023-02-16T06:02:16;100164.59;;;-0.81;83.79
52745;BME280;38637;49.984;20.426;2023-02-16T06:04:41;100158.69;;;-0.77;84.15
52745;BME280;38637;49.984;20.426;2023-02-16T06:07:06;100157.88;;;-0.69;83.72
52745;BME280;38637;49.984;20.426;2023-02-16T06:09:31;100166.91;;;-0.62;83.70
52745;BME280;38637;49.984;20.426;2023-02-16T06:11:57;100161.69;;;-0.55;83.40
52745;BME280;38637;49.984;20.426;2023-02-16T06:14:22;100156.66;;;-0.50;83.72
52745;BME280;38637;49.984;20.426;2023-02-16T06:16:49;100166.38;;;-0.49;83.28
52745;BME280;38637;49.984;20.426;2023-02-16T06:19:16;100169.06;;;-0.41;82.64
52745;BME280;38637;49.984;20.426;2023-02-16T06:21:42;100179.78;;;-0.33;82.73
52745;BME280;38637;49.984;20.426;2023-02-16T06:24:08;100172.72;;;-0.26;83.02
52745;BME280;38637;49.984;20.426;2023-02-16T06:26:35;100183.25;;;-0.16;83.00
52745;BME280;38637;49.984;20.426;2023-02-16T06:29:00;100171.34;;;-0.13;82.62
52745;BME280;38637;49.984;20.426;2023-02-16T06:31:25;100168.28;;;-0.02;82.64
52745;BME280;38637;49.984;20.426;2023-02-16T06:33:51;100168.41;;;0.05;82.68
52745;BME280;38637;49.984;20.426;2023-02-16T06:36:17;100168.75;;;0.10;82.61
52745;BME280;38637;49.984;20.426;2023-02-16T06:38:43;100171.09;;;0.13;82.43
52745;BME280;38637;49.984;20.426;2023-02-16T06:41:08;100163.03;;;0.13;82.13
52745;BME280;38637;49.984;20.426;2023-02-16T06:43:34;100168.69;;;0.18;81.81
52745;BME280;38637;49.984;20.426;2023-02-16T06:45:59;100179.41;;;0.26;82.02
52745;BME280;38637;49.984;20.426;2023-02-16T06:48:25;100175.66;;;0.35;82.20
52745;BME280;38637;49.984;20.426;2023-02-16T06:50:50;100163.03;;;0.44;81.95
52745;BME280;38637;49.984;20.426;2023-02-16T06:53:16;100171.91;;;0.53;82.60
52745;BME280;38637;49.984;20.426;2023-02-16T06:55:41;100175.72;;;0.58;82.63
52745;BME280;38637;49.984;20.426;2023-02-16T06:58:06;100165.25;;;0.63;82.46
52745;BME280;38637;49.984;20.426;2023-02-16T07:00:33;100166.53;;;0.76;82.33
52745;BME280;38637;49.984;20.426;2023-02-16T07:02:58;100168.16;;;0.85;82.40
52745;BME280;38637;49.984;20.426;2023-02-16T07:05:24;100166.25;;;0.94;82.56
52745;BME280;38637;49.984;20.426;2023-02-16T07:07:49;100164.69;;;0.99;82.89
52745;BME280;38637;49.984;20.426;2023-02-16T07:10:15;100157.56;;;1.06;82.92
52745;BME280;38637;49.984;20.426;2023-02-16T07:12:40;100159.53;;;1.12;82.86
52745;BME280;38637;49.984;20.426;2023-02-16T07:15:06;100159.16;;;1.15;82.99
52745;BME280;38637;49.984;20.426;2023-02-16T07:17:31;100158.63;;;1.20;83.19
52745;BME280;38637;49.984;20.426;2023-02-16T07:19:56;100159.09;;;1.24;83.48
52745;BME280;38637;49.984;20.426;2023-02-16T07:22:22;100164.97;;;1.27;83.76
52745;BME280;38637;49.984;20.426;2023-02-16T07:24:47;100168.78;;;1.33;83.94
52745;BME280;38637;49.984;20.426;2023-02-16T07:27:12;100162.00;;;1.37;84.10
52745;BME280;38637;49.984;20.426;2023-02-16T07:29:38;100165.81;;;1.43;84.50
52745;BME280;38637;49.984;20.426;2023-02-16T07:32:04;100146.31;;;1.41;84.48
52745;BME280;38637;49.984;20.426;2023-02-16T07:34:29;100158.31;;;1.53;84.80
52745;BME280;38637;49.984;20.426;2023-02-16T07:36:55;100158.97;;;1.55;85.17
52745;BME280;38637;49.984;20.426;2023-02-16T07:39:20;100156.28;;;1.55;85.50
52745;BME280;38637;49.984;20.426;2023-02-16T07:41:45;100168.53;;;1.57;85.73
52745;BME280;38637;49.984;20.426;2023-02-16T07:44:11;100170.69;;;1.62;85.71
52745;BME280;38637;49.984;20.426;2023-02-16T07:46:36;100165.94;;;1.64;85.27
52745;BME280;38637;49.984;20.426;2023-02-16T07:49:02;100167.75;;;1.72;85.19
52745;BME280;38637;49.984;20.426;2023-02-16T07:51:29;100167.16;;;1.76;85.06
52745;BME280;38637;49.984;20.426;2023-02-16T07:53:56;100170.16;;;1.81;85.38
52745;BME280;38637;49.984;20.426;2023-02-16T07:56:27;100168.59;;;1.87;85.22
52745;BME280;38637;49.984;20.426;2023-02-16T07:58:54;100168.31;;;1.97;85.08
52745;BME280;38637;49.984;20.426;2023-02-16T08:01:20;100164.88;;;2.03;84.43
52745;BME280;38637;49.984;20.426;2023-02-16T08:03:46;100162.78;;;2.05;84.28
52745;BME280;38637;49.984;20.426;2023-02-16T08:06:11;100158.72;;;2.09;83.80
52745;BME280;38637;49.984;20.426;2023-02-16T08:08:37;100156.13;;;2.16;83.96
52745;BME280;38637;49.984;20.426;2023-02-16T08:11:15;100151.84;;;2.21;84.14
52745;BME280;38637;49.984;20.426;2023-02-16T08:13:41;100151.25;;;2.26;83.86
52745;BME280;38637;49.984;20.426;2023-02-16T08:16:21;100151.72;;;2.29;83.70
52745;BME280;38637;49.984;20.426;2023-02-16T08:18:47;100130.72;;;2.25;83.55
52745;BME280;38637;49.984;20.426;2023-02-16T08:21:17;100153.94;;;2.41;83.50
52745;BME280;38637;49.984;20.426;2023-02-16T08:23:51;100139.25;;;2.43;83.34
52745;BME280;38637;49.984;20.426;2023-02-16T08:26:17;100151.97;;;2.49;83.61
52745;BME280;38637;49.984;20.426;2023-02-16T08:28:44;100145.97;;;2.54;83.54
52745;BME280;38637;49.984;20.426;2023-02-16T08:31:15;100144.22;;;2.61;83.51
52745;BME280;38637;49.984;20.426;2023-02-16T08:33:41;100153.59;;;2.65;82.68
52745;BME280;38637;49.984;20.426;2023-02-16T08:36:15;100146.72;;;2.63;83.14
52745;BME280;38637;49.984;20.426;2023-02-16T08:38:40;100167.63;;;2.75;83.02
52745;BME280;38637;49.984;20.426;2023-02-16T08:41:07;100158.94;;;2.80;82.63
52745;BME280;38637;49.984;20.426;2023-02-16T08:43:32;100154.44;;;2.87;82.31
52745;BME280;38637;49.984;20.426;2023-02-16T08:45:58;100158.63;;;2.90;82.03
52745;BME280;38637;49.984;20.426;2023-02-16T08:48:23;100166.53;;;2.91;81.74
52745;BME280;38637;49.984;20.426;2023-02-16T08:50:49;100154.75;;;2.99;82.13
52745;BME280;38637;49.984;20.426;2023-02-16T08:53:21;100156.06;;;3.03;82.26
52745;BME280;38637;49.984;20.426;2023-02-16T08:55:53;100162.34;;;3.10;81.61
52745;BME280;38637;49.984;20.426;2023-02-16T08:58:19;100152.44;;;3.17;81.83
52745;BME280;38637;49.984;20.426;2023-02-16T09:00:45;100150.66;;;3.25;81.56
52745;BME280;38637;49.984;20.426;2023-02-16T09:03:11;100151.09;;;3.28;81.03
52745;BME280;38637;49.984;20.426;2023-02-16T09:05:36;100151.13;;;3.35;80.93
52745;BME280;38637;49.984;20.426;2023-02-16T09:08:01;100157.63;;;3.40;80.43
52745;BME280;38637;49.984;20.426;2023-02-16T09:10:27;100146.88;;;3.47;80.71
52745;BME280;38637;49.984;20.426;2023-02-16T09:12:53;100142.56;;;3.53;79.88
52745;BME280;38637;49.984;20.426;2023-02-16T09:15:18;100143.25;;;3.61;80.24
52745;BME280;38637;49.984;20.426;2023-02-16T09:17:44;100139.75;;;3.67;80.53
52745;BME280;38637;49.984;20.426;2023-02-16T09:20:11;100145.41;;;3.79;79.07
52745;BME280;38637;49.984;20.426;2023-02-16T09:22:36;100150.50;;;3.89;79.19
52745;BME280;38637;49.984;20.426;2023-02-16T09:25:02;100134.91;;;3.98;78.94
52745;BME280;38637;49.984;20.426;2023-02-16T09:27:27;100137.69;;;4.04;79.04
52745;BME280;38637;49.984;20.426;2023-02-16T09:29:53;100135.41;;;4.08;77.99
52745;BME280;38637;49.984;20.426;2023-02-16T09:32:18;100135.00;;;4.11;76.99
52745;BME280;38637;49.984;20.426;2023-02-16T09:34:43;100128.97;;;4.15;77.29
52745;BME280;38637;49.984;20.426;2023-02-16T09:37:10;100127.56;;;4.20;76.88
52745;BME280;38637;49.984;20.426;2023-02-16T09:39:35;100138.59;;;4.25;75.88
52745;BME280;38637;49.984;20.426;2023-02-16T09:44:52;100112.03;;;4.35;76.61
52745;BME280;38637;49.984;20.426;2023-02-16T09:47:28;100122.25;;;4.46;76.34
52745;BME280;38637;49.984;20.426;2023-02-16T09:49:56;100117.06;;;4.51;75.76
52745;BME280;38637;49.984;20.426;2023-02-16T09:52:37;100112.50;;;4.58;75.39
52745;BME280;38637;49.984;20.426;2023-02-16T09:55:15;100127.72;;;4.66;75.60
52745;BME280;38637;49.984;20.426;2023-02-16T09:58:18;100122.09;;;4.74;75.22
52745;BME280;38637;49.984;20.426;2023-02-16T10:00:51;100118.56;;;4.80;74.92
52745;BME280;38637;49.984;20.426;2023-02-16T10:03:46;100116.50;;;4.82;73.92
52745;BME280;38637;49.984;20.426;2023-02-16T10:06:28;100112.75;;;4.77;73.43
52745;BME280;38637;49.984;20.426;2023-02-16T10:09:05;100109.44;;;4.88;73.77
52745;BME280;38637;49.984;20.426;2023-02-16T10:11:42;100101.31;;;4.95;72.89
52745;BME280;38637;49.984;20.426;2023-02-16T10:17:27;100105.94;;;5.21;73.39
52745;BME280;38637;49.984;20.426;2023-02-16T10:20:00;100091.53;;;5.34;72.93
52745;BME280;38637;49.984;20.426;2023-02-16T10:22:42;100093.84;;;5.30;70.18
52745;BME280;38637;49.984;20.426;2023-02-16T10:27:42;100100.50;;;5.54;71.46
52745;BME280;38637;49.984;20.426;2023-02-16T10:30:21;100054.88;;;5.31;71.47
52745;BME280;38637;49.984;20.426;2023-02-16T10:32:55;100106.50;;;5.56;71.60
52745;BME280;38637;49.984;20.426;2023-02-16T10:35:51;100093.56;;;5.71;71.44
52745;BME280;38637;49.984;20.426;2023-02-16T10:38:50;100101.91;;;5.76;70.84
52745;BME280;38637;49.984;20.426;2023-02-16T10:41:36;100102.09;;;5.75;69.70
52745;BME280;38637;49.984;20.426;2023-02-16T10:44:30;100101.47;;;5.80;69.64
52745;BME280;38637;49.984;20.426;2023-02-16T10:47:02;100095.41;;;5.84;69.40
52745;BME280;38637;49.984;20.426;2023-02-16T10:49:30;100089.53;;;5.87;69.22
52745;BME280;38637;49.984;20.426;2023-02-16T10:51:57;100096.63;;;6.02;68.85
52745;BME280;38637;49.984;20.426;2023-02-16T10:54:31;100087.66;;;6.08;68.46
52745;BME280;38637;49.984;20.426;2023-02-16T10:57:01;100083.00;;;6.15;69.28
52745;BME280;38637;49.984;20.426;2023-02-16T10:59:44;100077.31;;;6.30;68.60
52745;BME280;38637;49.984;20.426;2023-02-16T11:04:50;100079.06;;;6.56;68.19
52745;BME280;38637;49.984;20.426;2023-02-16T11:07:50;100078.78;;;6.64;67.24
52745;BME280;38637;49.984;20.426;2023-02-16T11:10:33;100071.47;;;6.71;67.45
52745;BME280;38637;49.984;20.426;2023-02-16T11:12:58;100069.25;;;6.86;67.92
52745;BME280;38637;49.984;20.426;2023-02-16T11:15:25;100067.72;;;6.97;67.71
52745;BME280;38637;49.984;20.426;2023-02-16T11:18:00;100067.88;;;7.02;67.42
52745;BME280;38637;49.984;20.426;2023-02-16T11:20:35;100057.34;;;7.12;67.05
52745;BME280;38637;49.984;20.426;2023-02-16T11:23:26;100046.81;;;7.23;67.01
52745;BME280;38637;49.984;20.426;2023-02-16T11:26:02;100050.50;;;7.28;66.12
52745;BME280;38637;49.984;20.426;2023-02-16T11:28:50;100048.59;;;7.35;66.40
52745;BME280;38637;49.984;20.426;2023-02-16T11:31:30;100048.88;;;7.46;66.44
52745;BME280;38637;49.984;20.426;2023-02-16T11:36:36;100034.56;;;7.57;66.46
52745;BME280;38637;49.984;20.426;2023-02-16T11:41:43;100025.63;;;7.68;65.57
52745;BME280;38637;49.984;20.426;2023-02-16T11:44:28;100020.81;;;7.70;65.54
52745;BME280;38637;49.984;20.426;2023-02-16T11:46:54;100018.47;;;7.74;64.63
52745;BME280;38637;49.984;20.426;2023-02-16T11:49:39;100015.66;;;7.80;65.46
52745;BME280;38637;49.984;20.426;2023-02-16T11:52:28;100009.78;;;7.83;65.23
52745;BME280;38637;49.984;20.426;2023-02-16T11:54:57;100008.75;;;7.85;64.02
52745;BME280;38637;49.984;20.426;2023-02-16T11:59:53;100000.13;;;7.88;63.29
52745;BME280;38637;49.984;20.426;2023-02-16T12:02:41;99991.25;;;7.92;63.13
52745;BME280;38637;49.984;20.426;2023-02-16T12:16:50;99974.28;;;7.97;62.68
52745;BME280;38637;49.984;20.426;2023-02-16T12:19:39;99974.03;;;7.98;62.40
52745;BME280;38637;49.984;20.426;2023-02-16T12:22:37;99974.63;;;8.00;62.62
52745;BME280;38637;49.984;20.426;2023-02-16T12:25:26;99966.47;;;8.00;62.31
52745;BME280;38637;49.984;20.426;2023-02-16T12:28:04;99962.47;;;8.03;62.61
52745;BME280;38637;49.984;20.426;2023-02-16T12:39:02;99952.88;;;8.00;61.20
52745;BME280;38637;49.984;20.426;2023-02-16T12:44:36;99936.72;;;8.05;62.22
52745;BME280;38637;49.984;20.426;2023-02-16T12:47:04;99936.47;;;8.07;62.69
52745;BME280;38637;49.984;20.426;2023-02-16T12:49:52;99933.91;;;8.12;63.10
52745;BME280;38637;49.984;20.426;2023-02-16T12:52:38;99919.00;;;8.15;63.12
52745;BME280;38637;49.984;20.426;2023-02-16T12:55:17;99915.00;;;8.17;62.97
52745;BME280;38637;49.984;20.426;2023-02-16T13:00:44;99915.94;;;8.23;62.86
52745;BME280;38637;49.984;20.426;2023-02-16T13:05:48;99906.84;;;8.29;62.04
52745;BME280;38637;49.984;20.426;2023-02-16T13:08:27;99909.47;;;8.36;62.03
52745;BME280;38637;49.984;20.426;2023-02-16T13:11:02;99898.97;;;8.39;62.27
52745;BME280;38637;49.984;20.426;2023-02-16T13:13:32;99896.63;;;8.43;62.33
52745;BME280;38637;49.984;20.426;2023-02-16T13:16:15;99890.44;;;8.47;62.67
52745;BME280;38637;49.984;20.426;2023-02-16T13:18:43;99889.16;;;8.50;62.66
52745;BME280;38637;49.984;20.426;2023-02-16T13:24:02;99876.50;;;8.56;62.43
52745;BME280;38637;49.984;20.426;2023-02-16T13:37:57;99866.91;;;8.65;57.92
52745;BME280;38637;49.984;20.426;2023-02-16T13:43:12;99880.75;;;8.75;57.70
52745;BME280;38637;49.984;20.426;2023-02-16T13:45:43;99887.63;;;8.78;57.66
52745;BME280;38637;49.984;20.426;2023-02-16T13:48:36;99882.53;;;8.81;57.49
52745;BME280;38637;49.984;20.426;2023-02-16T13:51:11;99878.28;;;8.85;57.25
52745;BME280;38637;49.984;20.426;2023-02-16T13:53:40;99876.59;;;8.84;57.21
52745;BME280;38637;49.984;20.426;2023-02-16T13:58:54;99879.09;;;8.86;56.60
52745;BME280;38637;49.984;20.426;2023-02-16T14:01:40;99878.63;;;8.89;56.86
52745;BME280;38637;49.984;20.426;2023-02-16T14:07:18;99884.69;;;8.91;56.64
52745;BME280;38637;49.984;20.426;2023-02-16T14:17:20;99878.50;;;8.84;56.93
52745;BME280;38637;49.984;20.426;2023-02-16T14:19:50;99874.34;;;8.81;56.33
52745;BME280;38637;49.984;20.426;2023-02-16T14:22:18;99881.97;;;8.79;55.96
52745;BME280;38637;49.984;20.426;2023-02-16T14:24:53;99878.63;;;8.77;55.86
52745;BME280;38637;49.984;20.426;2023-02-16T14:28:05;99884.81;;;8.72;55.66
52745;BME280;38637;49.984;20.426;2023-02-16T14:35:44;99881.25;;;8.60;57.29
52745;BME280;38637;49.984;20.426;2023-02-16T14:38:46;99888.81;;;8.58;57.57
52745;BME280;38637;49.984;20.426;2023-02-16T14:43:48;99877.09;;;8.46;57.53
52745;BME280;38637;49.984;20.426;2023-02-16T14:46:23;99884.56;;;8.39;58.23
52745;BME280;38637;49.984;20.426;2023-02-16T14:54:31;99875.63;;;8.32;59.30
52745;BME280;38637;49.984;20.426;2023-02-16T14:57:17;99877.16;;;8.27;59.86
52745;BME280;38637;49.984;20.426;2023-02-16T14:59:55;99875.59;;;8.20;59.95
52745;BME280;38637;49.984;20.426;2023-02-16T15:02:34;99873.22;;;8.12;59.72
52745;BME280;38637;49.984;20.426;2023-02-16T15:05:20;99871.09;;;8.02;59.88